Time;durP1;ratioP1;P1;durP2;ratioP2;P2;SDS_P1;SDS_P2;PMS_P1;PMS_P2;Temp;Humidity;BMP_temperature;BMP_pressure;BME280_temperature;BME280_humidity;BME280_pressure;Samples;Min_cycle;Max_cycle;Signal;HPM_P1;HPM_P2
2024/01/24 00:01:52;;;;;;;3.63;1.30;;;11.50;99.90;;;;;;5012509;28;20239;-59
2024/01/24 00:04:22;;;;;;;3.10;1.27;;;11.50;99.90;;;;;;5012686;28;20210;-58
2024/01/24 00:06:48;;;;;;;4.77;1.37;;;11.50;99.90;;;;;;5012095;28;20235;-57
2024/01/24 00:09:15;;;;;;;4.43;1.17;;;11.60;99.90;;;;;;5012391;28;20223;-58
2024/01/24 00:11:42;;;;;;;3.77;1.30;;;11.50;99.90;;;;;;5012344;28;20210;-58
2024/01/24 00:14:10;;;;;;;3.63;1.27;;;11.60;99.90;;;;;;5012481;28;20641;-57
2024/01/24 00:16:37;;;;;;;3.87;1.10;;;11.60;99.90;;;;;;5012491;28;20306;-58
2024/01/24 00:19:03;;;;;;;9.10;1.73;;;11.70;99.90;;;;;;5012538;28;20649;-57
2024/01/24 00:21:31;;;;;;;4.43;1.00;;;11.80;99.90;;;;;;5012079;28;20242;-58
2024/01/24 00:23:58;;;;;;;3.70;1.37;;;11.70;99.90;;;;;;5012358;28;20210;-59
2024/01/24 00:26:25;;;;;;;2.27;1.20;;;11.70;99.90;;;;;;5011888;28;20207;-57
2024/01/24 00:28:52;;;;;;;4.70;1.53;;;11.70;99.90;;;;;;5011984;28;20301;-56
2024/01/24 00:31:18;;;;;;;4.50;1.03;;;11.80;99.90;;;;;;5012186;28;20253;-58
2024/01/24 00:33:45;;;;;;;4.07;1.50;;;11.80;99.90;;;;;;5012302;28;20273;-57
2024/01/24 00:36:12;;;;;;;2.23;0.93;;;11.70;99.90;;;;;;5011874;28;20207;-57
2024/01/24 00:38:40;;;;;;;4.50;1.57;;;11.80;99.90;;;;;;5012854;28;20231;-60
2024/01/24 00:41:06;;;;;;;2.90;1.10;;;11.80;99.90;;;;;;5013169;28;20211;-59
2024/01/24 00:43:33;;;;;;;4.83;1.40;;;11.80;99.90;;;;;;5012641;28;20214;-56
2024/01/24 00:46:00;;;;;;;4.77;1.50;;;11.90;99.90;;;;;;5012076;28;20660;-57
2024/01/24 00:48:26;;;;;;;4.80;1.20;;;11.90;99.90;;;;;;5011993;28;20705;-58
2024/01/24 00:50:54;;;;;;;2.53;1.13;;;11.90;99.90;;;;;;5011577;28;20637;-58
2024/01/24 00:53:21;;;;;;;4.17;1.20;;;12.00;99.90;;;;;;5012236;28;20237;-57
2024/01/24 00:55:49;;;;;;;4.57;1.37;;;12.20;99.90;;;;;;5011670;28;20232;-57
2024/01/24 00:58:16;;;;;;;4.70;1.70;;;12.20;99.90;;;;;;5003702;28;20222;-57
2024/01/24 01:00:42;;;;;;;6.47;1.80;;;12.30;99.90;;;;;;5011834;28;20362;-57
2024/01/24 01:03:09;;;;;;;4.60;1.17;;;12.30;99.90;;;;;;5011619;28;20269;-57
2024/01/24 01:05:37;;;;;;;2.50;1.10;;;12.40;99.90;;;;;;5011377;28;20230;-57
2024/01/24 01:08:05;;;;;;;3.80;1.30;;;12.50;99.90;;;;;;5011474;28;20247;-57
2024/01/24 01:10:31;;;;;;;2.97;1.30;;;12.50;99.90;;;;;;5011758;28;20211;-57
2024/01/24 01:12:59;;;;;;;4.13;1.23;;;12.50;99.90;;;;;;5011570;28;20240;-57
2024/01/24 01:15:26;;;;;;;4.80;1.03;;;12.50;99.90;;;;;;5011355;28;20211;-58
2024/01/24 01:17:53;;;;;;;4.17;1.50;;;12.60;99.90;;;;;;5011227;28;20700;-58
2024/01/24 01:20:20;;;;;;;4.63;1.40;;;12.50;99.90;;;;;;5011686;28;20206;-56
2024/01/24 01:22:46;;;;;;;4.40;1.40;;;12.60;99.90;;;;;;5011786;28;20207;-57
2024/01/24 01:25:13;;;;;;;3.73;1.10;;;12.60;99.90;;;;;;5012939;28;20209;-57
2024/01/24 01:27:40;;;;;;;4.60;1.33;;;12.70;99.90;;;;;;5011302;28;20222;-57
2024/01/24 01:30:09;;;;;;;6.00;1.63;;;12.70;99.90;;;;;;5011432;28;20223;-57
2024/01/24 01:32:36;;;;;;;4.17;1.10;;;12.70;99.90;;;;;;5011389;28;20633;-57
2024/01/24 01:35:02;;;;;;;3.07;1.13;;;12.70;99.90;;;;;;5011541;28;20229;-57
2024/01/24 01:37:29;;;;;;;3.77;1.17;;;12.70;99.90;;;;;;5011070;28;20249;-57
2024/01/24 01:39:55;;;;;;;8.53;1.83;;;12.70;99.90;;;;;;5011334;28;20207;-57
2024/01/24 01:42:22;;;;;;;4.73;1.13;;;12.80;99.90;;;;;;5011334;28;20210;-58
2024/01/24 01:44:49;;;;;;;4.00;1.37;;;12.80;99.90;;;;;;5011521;28;20215;-57
2024/01/24 01:47:18;;;;;;;3.03;1.10;;;12.80;99.90;;;;;;5002823;28;20199;-57
2024/01/24 01:49:46;;;;;;;2.27;1.17;;;12.80;99.90;;;;;;5011511;28;20211;-57
2024/01/24 01:52:13;;;;;;;5.17;1.50;;;12.90;99.90;;;;;;5011256;28;20199;-57
2024/01/24 01:54:41;;;;;;;3.97;1.23;;;12.90;99.90;;;;;;5012045;28;20207;-58
2024/01/24 01:57:11;;;;;;;4.03;1.23;;;13.00;99.90;;;;;;5014389;28;20229;-58
2024/01/24 01:59:38;;;;;;;3.63;1.23;;;13.00;99.90;;;;;;5015008;28;20215;-58
2024/01/24 02:02:06;;;;;;;4.63;1.00;;;12.90;99.90;;;;;;5014842;28;20207;-57
2024/01/24 02:04:34;;;;;;;3.13;1.23;;;13.00;99.90;;;;;;5014924;28;20230;-57
2024/01/24 02:07:02;;;;;;;5.37;1.33;;;13.00;99.90;;;;;;5014423;28;20699;-57
2024/01/24 02:09:29;;;;;;;3.70;1.00;;;13.00;99.90;;;;;;5014728;28;20310;-57
2024/01/24 02:11:55;;;;;;;3.67;1.10;;;13.00;99.90;;;;;;5014576;28;20222;-57
2024/01/24 02:14:22;;;;;;;3.60;1.03;;;13.10;99.90;;;;;;5014439;28;20207;-58
2024/01/24 02:16:49;;;;;;;2.97;1.20;;;13.00;99.90;;;;;;5014493;28;20207;-57
2024/01/24 02:19:16;;;;;;;4.43;1.13;;;13.10;99.90;;;;;;5014188;28;20234;-57
2024/01/24 02:21:44;;;;;;;4.47;1.33;;;13.10;99.90;;;;;;5014583;28;20665;-57
2024/01/24 02:24:12;;;;;;;4.83;1.30;;;13.00;99.90;;;;;;5014215;28;20687;-58
2024/01/24 02:26:39;;;;;;;4.70;1.30;;;12.90;99.90;;;;;;5014180;28;20302;-57
2024/01/24 02:29:06;;;;;;;4.00;1.20;;;13.00;99.90;;;;;;5014347;28;20583;-56
2024/01/24 02:31:33;;;;;;;2.90;1.10;;;13.00;99.90;;;;;;5014322;28;20322;-56
2024/01/24 02:33:59;;;;;;;3.13;0.93;;;12.90;99.90;;;;;;5013904;28;20677;-57
2024/01/24 02:36:26;;;;;;;4.70;1.23;;;13.00;99.90;;;;;;5013777;28;20210;-56
2024/01/24 02:38:53;;;;;;;4.47;1.53;;;13.10;99.90;;;;;;5013757;28;20253;-56
2024/01/24 02:41:21;;;;;;;4.53;1.10;;;13.10;99.90;;;;;;5014041;28;20298;-57
2024/01/24 02:43:48;;;;;;;2.37;1.20;;;13.00;99.90;;;;;;5014606;28;20215;-58
2024/01/24 02:46:15;;;;;;;3.70;1.10;;;13.00;99.90;;;;;;5013933;28;20202;-56
2024/01/24 02:48:41;;;;;;;3.73;1.17;;;13.00;99.90;;;;;;5013797;28;20350;-57
2024/01/24 02:51:08;;;;;;;2.97;1.00;;;13.00;99.90;;;;;;5013713;28;20246;-56
2024/01/24 02:53:35;;;;;;;4.07;1.20;;;13.00;99.90;;;;;;5013823;28;20617;-57
2024/01/24 02:56:02;;;;;;;4.03;1.23;;;13.00;99.90;;;;;;5013202;28;20210;-57
2024/01/24 02:58:30;;;;;;;3.70;1.17;;;12.80;99.90;;;;;;5013188;28;20234;-56
2024/01/24 03:00:56;;;;;;;4.57;1.50;;;12.70;99.90;;;;;;5013534;28;20211;-57
2024/01/24 03:03:23;;;;;;;4.03;1.20;;;12.60;99.90;;;;;;5013539;28;20207;-58
2024/01/24 03:05:50;;;;;;;1.63;0.77;;;12.50;99.90;;;;;;5013032;28;20623;-58
2024/01/24 03:08:16;;;;;;;3.17;0.77;;;12.40;99.90;;;;;;5012860;28;20229;-56
2024/01/24 03:10:43;;;;;;;4.50;1.27;;;12.30;99.90;;;;;;5013411;28;20844;-57
2024/01/24 03:13:10;;;;;;;3.97;0.97;;;12.20;99.90;;;;;;5013320;28;20203;-57
2024/01/24 03:15:38;;;;;;;3.33;1.00;;;12.10;99.90;;;;;;5013261;28;20523;-56
2024/01/24 03:18:05;;;;;;;2.70;0.87;;;12.10;99.90;;;;;;5012875;28;20235;-57
2024/01/24 03:20:32;;;;;;;2.83;0.80;;;12.00;99.90;;;;;;5013301;28;20210;-57
2024/01/24 03:22:58;;;;;;;3.83;1.40;;;12.00;99.90;;;;;;5012960;28;20265;-57
2024/01/24 03:25:25;;;;;;;2.37;1.00;;;12.10;99.90;;;;;;5012832;28;20582;-57
2024/01/24 03:27:52;;;;;;;5.13;1.20;;;12.00;99.90;;;;;;5012851;28;20276;-56
2024/01/24 03:30:18;;;;;;;3.20;0.90;;;12.10;99.90;;;;;;5012651;28;20283;-57
2024/01/24 03:32:46;;;;;;;2.53;1.03;;;12.00;99.90;;;;;;5012797;28;20299;-57
2024/01/24 03:35:13;;;;;;;1.43;0.70;;;12.10;99.90;;;;;;5012633;28;20323;-57
2024/01/24 03:37:40;;;;;;;3.03;0.90;;;12.30;99.90;;;;;;5012371;28;20234;-57
2024/01/24 03:40:08;;;;;;;1.50;0.80;;;12.40;99.90;;;;;;5012914;28;20277;-57
2024/01/24 03:42:34;;;;;;;3.73;1.10;;;12.40;99.90;;;;;;5012896;28;20214;-57
2024/01/24 03:45:01;;;;;;;4.00;1.00;;;12.50;99.90;;;;;;5012625;28;20210;-56
2024/01/24 03:47:28;;;;;;;2.77;1.00;;;12.50;99.90;;;;;;5012493;28;20273;-56
2024/01/24 03:49:56;;;;;;;1.70;0.73;;;12.60;99.90;;;;;;5012671;28;20696;-55
2024/01/24 03:52:22;;;;;;;3.27;1.00;;;12.70;99.90;;;;;;5012499;28;20568;-59
2024/01/24 03:54:49;;;;;;;3.53;0.90;;;12.80;99.90;;;;;;5012782;28;20207;-58
2024/01/24 03:57:16;;;;;;;3.53;1.00;;;12.80;99.90;;;;;;5012093;28;20207;-58
2024/01/24 03:59:42;;;;;;;2.60;0.90;;;12.90;99.90;;;;;;5053862;22;20234;-58
2024/01/24 04:02:09;;;;;;;3.93;0.70;;;12.90;99.90;;;;;;5031903;28;20254;-59
2024/01/24 04:04:36;;;;;;;3.30;1.00;;;12.90;99.90;;;;;;5031932;28;20206;-58
2024/01/24 04:07:04;;;;;;;3.90;0.93;;;12.90;99.90;;;;;;5031649;28;20210;-58
2024/01/24 04:09:31;;;;;;;2.20;0.90;;;13.00;99.90;;;;;;5023755;28;20313;-58
2024/01/24 04:11:57;;;;;;;2.53;1.13;;;13.10;99.90;;;;;;5023329;28;20214;-60
2024/01/24 04:14:24;;;;;;;14.27;11.57;;;13.10;99.90;;;;;;5020249;28;20203;-60
2024/01/24 04:16:51;;;;;;;4.87;1.60;;;13.20;99.90;;;;;;5019906;28;20672;-60
2024/01/24 04:19:17;;;;;;;2.53;1.13;;;13.20;99.90;;;;;;5022787;28;20402;-60
2024/01/24 04:21:44;;;;;;;2.17;1.17;;;13.20;99.90;;;;;;5023672;28;20206;-60
2024/01/24 04:24:12;;;;;;;4.07;1.27;;;13.30;99.90;;;;;;5021263;28;20206;-60
2024/01/24 04:26:40;;;;;;;5.10;1.33;;;13.30;99.90;;;;;;5020004;28;20206;-60
2024/01/24 04:29:07;;;;;;;1.97;0.83;;;13.30;99.90;;;;;;5021366;28;20227;-60
2024/01/24 04:31:33;;;;;;;2.20;1.07;;;13.30;99.90;;;;;;5023581;28;20218;-60
2024/01/24 04:34:00;;;;;;;5.77;1.60;;;13.30;99.90;;;;;;5022523;28;20774;-60
2024/01/24 04:36:27;;;;;;;3.10;1.17;;;13.30;99.90;;;;;;5019720;28;20206;-60
2024/01/24 04:38:53;;;;;;;2.83;1.00;;;13.30;99.90;;;;;;5019630;28;20226;-60
2024/01/24 04:41:21;;;;;;;2.00;1.07;;;13.30;99.90;;;;;;5023404;28;20265;-60
2024/01/24 04:43:48;;;;;;;2.63;1.23;;;13.30;99.90;;;;;;5023385;28;20508;-60
2024/01/24 04:46:15;;;;;;;4.00;1.10;;;13.30;99.90;;;;;;5020072;28;20213;-60
2024/01/24 04:48:42;;;;;;;3.30;1.40;;;13.40;99.90;;;;;;5019621;28;20234;-60
2024/01/24 04:51:09;;;;;;;2.37;0.87;;;13.40;99.90;;;;;;5021583;28;20252;-60
2024/01/24 04:53:37;;;;;;;2.47;1.00;;;13.40;99.90;;;;;;5023201;28;20659;-60
2024/01/24 04:56:04;;;;;;;3.03;1.20;;;13.40;99.90;;;;;;5021609;28;20328;-60
2024/01/24 04:58:32;;;;;;;3.07;1.03;;;13.50;99.90;;;;;;5019385;28;20227;-60
2024/01/24 05:01:00;;;;;;;2.93;1.20;;;13.40;99.90;;;;;;5019787;28;20265;-61
2024/01/24 05:03:26;;;;;;;4.03;1.60;;;13.50;99.90;;;;;;5023213;28;20213;-60
2024/01/24 05:05:53;;;;;;;3.27;1.17;;;13.50;99.90;;;;;;5023282;28;20264;-58
2024/01/24 05:08:20;;;;;;;3.53;1.47;;;13.50;99.90;;;;;;5019663;28;20215;-59
2024/01/24 05:10:47;;;;;;;4.43;1.03;;;13.50;99.90;;;;;;5019569;28;20202;-58
2024/01/24 05:13:13;;;;;;;3.53;1.43;;;13.50;99.90;;;;;;5021587;28;20216;-59
2024/01/24 05:15:41;;;;;;;3.60;1.20;;;13.50;99.90;;;;;;5022747;28;20287;-59
2024/01/24 05:18:08;;;;;;;4.80;1.13;;;13.50;99.90;;;;;;5021130;28;20236;-59
2024/01/24 05:20:35;;;;;;;4.57;1.03;;;13.50;99.90;;;;;;5019697;28;20595;-61
2024/01/24 05:23:03;;;;;;;3.40;1.30;;;13.50;99.90;;;;;;5020387;28;20206;-59
2024/01/24 05:25:30;;;;;;;4.17;1.27;;;13.60;99.90;;;;;;5018414;28;20600;-59
2024/01/24 05:27:57;;;;;;;2.40;0.90;;;13.60;99.90;;;;;;5019307;28;20280;-60
2024/01/24 05:30:23;;;;;;;6.80;1.23;;;13.70;99.90;;;;;;5021494;28;20210;-60
2024/01/24 05:32:51;;;;;;;1.93;1.10;;;13.70;99.90;;;;;;5023507;28;20338;-60
2024/01/24 05:35:20;;;;;;;1.77;0.90;;;13.80;99.90;;;;;;5025775;28;20655;-59
2024/01/24 05:37:47;;;;;;;2.07;1.20;;;13.80;99.90;;;;;;5026436;28;20598;-59
2024/01/24 05:40:14;;;;;;;3.80;1.57;;;13.80;99.90;;;;;;5023801;28;20249;-59
2024/01/24 05:42:41;;;;;;;4.03;1.30;;;13.80;99.90;;;;;;5022925;28;20207;-59
2024/01/24 05:45:09;;;;;;;3.03;1.23;;;13.80;99.90;;;;;;5024156;28;20299;-59
2024/01/24 05:47:37;;;;;;;2.23;1.17;;;13.80;99.90;;;;;;5026274;28;20281;-59
2024/01/24 05:50:06;;;;;;;2.30;1.03;;;13.80;99.90;;;;;;5025345;28;20210;-58
2024/01/24 05:52:34;;;;;;;3.20;1.10;;;13.80;99.90;;;;;;5022970;28;20246;-59
2024/01/24 05:55:00;;;;;;;4.20;1.23;;;13.80;99.90;;;;;;5022922;28;20207;-59
2024/01/24 05:57:27;;;;;;;3.00;1.70;;;13.90;99.90;;;;;;5026014;28;20199;-60
2024/01/24 05:59:54;;;;;;;3.60;1.23;;;13.80;99.90;;;;;;5025810;28;20711;-60
2024/01/24 06:02:20;;;;;;;4.70;1.20;;;13.80;99.90;;;;;;5022877;28;20203;-60
2024/01/24 06:04:47;;;;;;;2.60;1.10;;;13.80;99.90;;;;;;5022631;28;20298;-60
2024/01/24 06:07:15;;;;;;;2.23;1.10;;;13.80;99.90;;;;;;5024102;28;20548;-59
2024/01/24 06:09:42;;;;;;;4.90;1.77;;;14.00;99.90;;;;;;5025529;28;20218;-59
2024/01/24 06:12:09;;;;;;;3.07;1.20;;;14.00;99.90;;;;;;5024452;28;20206;-59
2024/01/24 06:14:35;;;;;;;5.00;2.10;;;14.00;99.90;;;;;;5022557;28;20214;-59
2024/01/24 06:17:02;;;;;;;3.77;1.03;;;14.00;99.90;;;;;;5022653;28;20281;-59
2024/01/24 06:19:29;;;;;;;2.33;1.23;;;14.00;99.90;;;;;;5025675;28;20309;-59
2024/01/24 06:21:56;;;;;;;3.87;1.47;;;14.10;99.90;;;;;;5025759;28;20210;-60
2024/01/24 06:24:24;;;;;;;2.47;1.10;;;14.10;99.90;;;;;;5022069;28;20676;-60
2024/01/24 06:26:50;;;;;;;3.87;1.40;;;14.20;99.90;;;;;;5022246;28;20265;-60
2024/01/24 06:29:19;;;;;;;2.83;1.07;;;14.10;99.90;;;;;;5024427;28;20230;-60
2024/01/24 06:31:46;;;;;;;2.73;1.47;;;14.20;99.90;;;;;;5025424;28;20224;-59
2024/01/24 06:34:13;;;;;;;4.07;1.90;;;14.20;99.90;;;;;;5023562;28;20302;-59
2024/01/24 06:36:39;;;;;;;3.10;1.50;;;14.20;99.90;;;;;;5021709;28;20290;-59
2024/01/24 06:39:07;;;;;;;2.80;1.00;;;14.20;99.90;;;;;;5022630;28;20247;-60
2024/01/24 06:41:35;;;;;;;3.03;1.10;;;14.20;99.90;;;;;;5024199;28;20206;-59
2024/01/24 06:44:05;;;;;;;3.13;1.47;;;14.20;99.90;;;;;;5024908;28;20312;-59
2024/01/24 06:46:31;;;;;;;5.13;2.13;;;14.20;99.90;;;;;;5021710;28;20203;-59
2024/01/24 06:48:58;;;;;;;6.00;1.10;;;14.10;99.90;;;;;;5021738;28;20231;-59
2024/01/24 06:51:26;;;;;;;3.07;1.30;;;14.10;99.90;;;;;;5013534;28;20677;-59
2024/01/24 06:53:53;;;;;;;4.10;1.90;;;14.20;99.90;;;;;;5021810;28;20215;-60
2024/01/24 06:56:21;;;;;;;2.13;1.07;;;14.20;99.90;;;;;;5024220;28;20308;-60
2024/01/24 06:58:49;;;;;;;1.83;0.80;;;14.20;99.90;;;;;;5025045;28;20226;-59
2024/01/24 07:01:16;;;;;;;3.63;1.03;;;14.20;99.90;;;;;;5022902;28;20214;-60
2024/01/24 07:03:43;;;;;;;1.97;0.70;;;14.10;99.90;;;;;;5021548;28;20215;-59
2024/01/24 07:06:09;;;;;;;2.43;1.00;;;14.10;99.90;;;;;;5022568;28;20214;-60
2024/01/24 07:08:39;;;;;;;1.37;0.97;;;14.10;99.90;;;;;;5024704;28;20230;-58
2024/01/24 07:11:06;;;;;;;2.20;0.83;;;14.10;99.90;;;;;;5024385;28;20202;-59
2024/01/24 07:13:33;;;;;;;3.83;1.20;;;14.10;99.90;;;;;;5021381;28;20234;-58
2024/01/24 07:16:04;;;;;;;1.77;1.10;;;14.20;99.90;;;;;;5020924;28;20668;-59
2024/01/24 07:18:31;;;;;;;2.37;0.90;;;14.20;99.90;;;;;;5013431;28;20230;-58
2024/01/24 07:20:58;;;;;;;1.83;1.10;;;14.10;99.90;;;;;;5021344;28;20210;-58
2024/01/24 07:23:24;;;;;;;2.00;0.83;;;14.20;99.90;;;;;;5024398;28;20198;-58
2024/01/24 07:25:51;;;;;;;2.57;1.00;;;14.00;99.90;;;;;;5024431;28;20269;-59
2024/01/24 07:28:19;;;;;;;1.23;0.73;;;14.10;99.90;;;;;;5022444;28;20314;-58
2024/01/24 07:30:46;;;;;;;3.27;1.20;;;14.10;99.90;;;;;;5021016;28;20724;-59
2024/01/24 07:33:14;;;;;;;3.40;1.00;;;14.20;99.90;;;;;;5022367;28;20215;-59
2024/01/24 07:35:41;;;;;;;1.40;1.00;;;14.20;99.90;;;;;;5024054;28;20738;-59
2024/01/24 07:38:08;;;;;;;2.67;1.00;;;14.30;99.90;;;;;;5023458;28;20238;-59
2024/01/24 07:40:34;;;;;;;3.60;1.53;;;14.30;99.90;;;;;;5020771;28;20281;-59
2024/01/24 07:43:01;;;;;;;2.23;0.90;;;14.40;99.90;;;;;;5021022;28;20261;-59
2024/01/24 07:45:28;;;;;;;2.43;0.80;;;14.40;99.90;;;;;;5020532;28;20293;-59
2024/01/24 07:47:55;;;;;;;2.83;0.80;;;14.40;99.90;;;;;;5020793;28;20234;-59
2024/01/24 07:50:23;;;;;;;3.60;0.90;;;14.40;99.90;;;;;;5023566;28;20210;-59
2024/01/24 07:52:50;;;;;;;1.97;0.70;;;14.50;99.90;;;;;;5023588;28;20210;-59
2024/01/24 07:55:16;;;;;;;1.30;0.87;;;14.60;99.90;;;;;;5022012;28;20264;-59
2024/01/24 07:57:43;;;;;;;1.73;0.77;;;14.60;99.90;;;;;;5020105;28;20207;-60
2024/01/24 08:00:16;;;;;;;1.00;0.50;;;14.70;99.90;;;;;;5021191;28;20465;-59
2024/01/24 08:02:43;;;;;;;1.60;0.63;;;14.70;99.90;;;;;;5023797;28;20214;-59
2024/01/24 08:05:12;;;;;;;1.43;0.70;;;14.80;99.90;;;;;;5022454;28;20206;-59
2024/01/24 08:07:41;;;;;;;2.87;0.90;;;14.90;99.90;;;;;;5019969;28;20262;-59
2024/01/24 08:10:10;;;;;;;1.63;0.90;;;14.90;99.90;;;;;;5020785;28;20241;-59
2024/01/24 08:12:37;;;;;;;3.27;0.80;;;14.90;99.90;;;;;;5023451;28;20289;-60
2024/01/24 08:15:05;;;;;;;2.57;0.73;;;14.90;99.90;;;;;;5023097;28;20206;-60
2024/01/24 08:17:32;;;;;;;2.97;0.93;;;14.90;99.90;;;;;;5019784;28;20210;-59
2024/01/24 08:19:59;;;;;;;1.30;0.70;;;14.80;99.90;;;;;;5020038;28;20317;-59
2024/01/24 08:22:27;;;;;;;1.70;0.70;;;14.90;99.90;;;;;;5023098;28;20206;-61
2024/01/24 08:24:55;;;;;;;1.48;0.90;;;15.00;99.90;;;;;;5023428;28;20210;-61
2024/01/24 08:27:22;;;;;;;1.87;0.60;;;15.00;99.90;;;;;;5020298;28;20553;-61
2024/01/24 08:29:49;;;;;;;2.40;1.00;;;15.00;99.90;;;;;;5019971;28;20377;-61
2024/01/24 08:32:16;;;;;;;1.20;0.50;;;14.90;99.90;;;;;;5021628;28;20572;-60
2024/01/24 08:34:43;;;;;;;1.03;0.53;;;14.90;99.90;;;;;;5023369;28;20260;-61
2024/01/24 08:37:12;;;;;;;2.45;0.90;;;15.00;99.90;;;;;;5021876;28;20238;-61
2024/01/24 08:39:40;;;;;;;2.60;0.97;;;15.00;99.90;;;;;;5024394;28;20657;-60
2024/01/24 08:42:08;;;;;;;1.73;0.73;;;15.00;99.90;;;;;;5022729;28;20213;-60
2024/01/24 08:44:35;;;;;;;0.50;0.40;;;15.10;99.90;;;;;;5019736;28;20215;-60
2024/01/24 08:47:02;;;;;;;1.23;0.53;;;15.10;99.90;;;;;;5019578;28;20550;-61
2024/01/24 08:49:28;;;;;;;1.77;0.47;;;15.10;99.90;;;;;;5019946;28;20218;-61
2024/01/24 08:51:57;;;;;;;1.77;0.77;;;15.20;99.90;;;;;;5020229;28;20207;-60
2024/01/24 08:54:24;;;;;;;6.60;3.00;;;15.20;99.90;;;;;;5022468;28;20605;-63
2024/01/24 08:56:50;;;;;;;1.90;0.60;;;15.20;99.90;;;;;;5022963;28;20206;-61
2024/01/24 08:59:19;;;;;;;1.70;1.00;;;15.10;99.90;;;;;;5020901;28;20237;-61
2024/01/24 09:01:46;;;;;;;1.37;0.37;;;15.10;99.90;;;;;;5019754;28;20237;-61
2024/01/24 09:04:14;;;;;;;0.83;0.50;;;15.30;99.90;;;;;;5020111;28;20633;-61
2024/01/24 09:06:42;;;;;;;0.67;0.40;;;15.40;99.90;;;;;;5022799;28;20206;-61
2024/01/24 09:09:13;;;;;;;0.80;0.40;;;15.50;99.90;;;;;;5022202;28;20226;-61
2024/01/24 09:11:40;;;;;;;0.70;0.40;;;15.60;99.90;;;;;;5019763;28;20257;-61
2024/01/24 09:14:07;;;;;;;0.77;0.37;;;15.60;99.90;;;;;;5020044;28;20210;-61
2024/01/24 09:16:35;;;;;;;0.60;0.40;;;15.70;99.90;;;;;;5022936;28;20305;-61
2024/01/24 09:19:02;;;;;;;0.70;0.30;;;15.60;99.90;;;;;;5022860;28;20241;-61
2024/01/24 09:21:29;;;;;;;0.70;0.40;;;15.80;99.90;;;;;;5020142;28;20219;-60
2024/01/24 09:23:55;;;;;;;0.50;0.20;;;15.90;99.90;;;;;;5020037;28;20210;-61
2024/01/24 09:26:22;;;;;;;3.30;0.50;;;15.80;99.90;;;;;;5021728;28;20222;-61
2024/01/24 09:28:49;;;;;;;1.37;0.40;;;15.80;99.90;;;;;;5022531;28;20252;-61
2024/01/24 09:31:16;;;;;;;1.02;0.50;;;15.70;99.90;;;;;;5020946;28;20210;-61
2024/01/24 09:33:44;;;;;;;0.40;0.25;;;15.70;99.90;;;;;;5019128;28;20264;-61
2024/01/24 09:36:10;;;;;;;1.10;0.20;;;15.70;99.90;;;;;;5019689;28;20207;-61
2024/01/24 09:38:37;;;;;;;0.55;0.30;;;15.70;99.90;;;;;;5022691;28;20321;-61
2024/01/24 09:41:13;;;;;;;0.80;0.40;;;15.70;99.90;;;;;;5022665;28;20229;-61
2024/01/24 09:43:40;;;;;;;0.83;0.50;;;15.80;99.90;;;;;;5012451;28;20256;-61
2024/01/24 09:46:12;;;;;;;1.23;0.20;;;15.80;99.90;;;;;;5018860;28;20207;-61
2024/01/24 09:48:40;;;;;;;0.45;0.28;;;15.90;99.90;;;;;;5022326;28;20230;-61
2024/01/24 09:51:09;;;;;;;0.90;0.23;;;15.90;99.90;;;;;;5022288;28;20199;-61
2024/01/24 09:53:38;;;;;;;0.60;0.22;;;15.90;99.90;;;;;;5019071;28;20211;-61
2024/01/24 09:56:06;;;;;;;0.87;0.27;;;15.90;99.90;;;;;;5018800;28;20721;-59
2024/01/24 09:58:32;;;;;;;0.40;0.20;;;15.90;99.90;;;;;;5037723;22;20234;-57
2024/01/24 10:01:03;;;;;;;0.40;0.20;;;15.90;99.90;;;;;;5030656;28;20280;-55
2024/01/24 10:03:31;;;;;;;0.50;0.20;;;15.90;99.90;;;;;;5030897;28;20217;-56
2024/01/24 10:05:58;;;;;;;2.57;0.20;;;15.90;99.90;;;;;;5030526;28;20245;-55
2024/01/24 10:08:27;;;;;;;0.60;0.47;;;15.90;99.90;;;;;;5027895;28;20230;-56
2024/01/24 10:10:53;;;;;;;1.03;0.50;;;16.00;99.90;;;;;;5019190;28;20214;-56
2024/01/24 10:13:20;;;;;;;0.52;0.30;;;16.00;99.90;;;;;;5020779;28;20634;-55
2024/01/24 10:15:47;;;;;;;0.77;0.27;;;16.10;99.90;;;;;;5023176;28;20209;-56
2024/01/24 10:18:14;;;;;;;2.40;0.40;;;16.10;99.90;;;;;;5024987;28;20226;-54
2024/01/24 10:20:42;;;;;;;0.30;0.30;;;16.00;99.90;;;;;;5022673;28;20234;-56
2024/01/24 10:23:10;;;;;;;0.40;0.37;;;16.00;99.90;;;;;;5022771;28;20214;-57
2024/01/24 10:25:41;;;;;;;0.82;0.70;;;15.90;99.90;;;;;;5025690;28;20213;-56
2024/01/24 10:28:13;;;;;;;2.90;2.40;;;15.90;99.90;;;;;;5025310;28;20209;-56
2024/01/24 10:30:41;;;;;;;1.13;1.02;;;15.90;99.90;;;;;;5022793;28;20294;-56
2024/01/24 10:33:11;;;;;;;0.70;0.70;;;16.00;99.90;;;;;;5022497;28;20206;-56
2024/01/24 10:35:38;;;;;;;0.65;0.32;;;16.10;99.90;;;;;;5025677;28;20291;-56
2024/01/24 10:38:05;;;;;;;0.45;0.38;;;16.20;99.90;;;;;;5025628;28;20245;-56
2024/01/24 10:40:32;;;;;;;0.20;0.20;;;16.20;99.90;;;;;;5014121;28;20305;-56
2024/01/24 10:43:05;;;;;;;0.40;0.30;;;16.30;99.90;;;;;;5022236;28;20207;-55
2024/01/24 10:45:33;;;;;;;0.40;0.25;;;16.20;99.90;;;;;;5022567;28;20206;-56
2024/01/24 10:48:00;;;;;;;1.13;0.23;;;16.00;99.90;;;;;;5021857;28;20603;-56
2024/01/24 10:50:26;;;;;;;2.45;0.50;;;16.00;99.90;;;;;;5024728;28;20199;-57
2024/01/24 10:52:53;;;;;;;1.73;0.63;;;15.90;99.90;;;;;;5025607;28;20209;-56
2024/01/24 10:55:21;;;;;;;3.17;0.38;;;15.90;99.90;;;;;;5023367;28;20256;-59
2024/01/24 10:57:48;;;;;;;0.37;0.20;;;15.70;99.90;;;;;;5021944;28;20692;-55
2024/01/24 11:00:19;;;;;;;0.37;0.13;;;15.70;99.90;;;;;;5022740;28;20285;-55
2024/01/24 11:02:46;;;;;;;0.20;0.10;;;15.60;99.90;;;;;;5025260;28;20745;-56
2024/01/24 11:05:20;;;;;;;0.33;0.10;;;15.50;99.90;;;;;;5024174;28;20210;-56
2024/01/24 11:07:54;;;;;;;0.10;0.10;;;15.50;99.90;;;;;;5021664;28;20211;-56
2024/01/24 11:10:26;;;;;;;1.05;0.47;;;15.50;99.90;;;;;;5023693;28;20206;-56
2024/01/24 11:12:52;;;;;;;0.73;0.23;;;15.60;99.90;;;;;;5024798;28;20210;-56
2024/01/24 11:15:22;;;;;;;0.98;0.30;;;15.80;99.90;;;;;;5023425;28;20206;-55
2024/01/24 11:18:22;;;;;;;0.30;0.30;;;16.00;99.90;;;;;;5021315;28;20225;-56
2024/01/24 11:20:51;;;;;;;0.40;0.35;;;16.20;99.90;;;;;;5015599;28;20326;-56
2024/01/24 11:23:34;;;;;;;1.37;0.77;;;16.10;99.90;;;;;;5022771;28;20202;-56
2024/01/24 11:26:01;;;;;;;0.82;0.45;;;16.10;99.90;;;;;;5024515;28;20237;-55
2024/01/24 11:28:27;;;;;;;0.60;0.30;;;16.00;99.90;;;;;;5021138;28;20711;-55
2024/01/24 11:30:55;;;;;;;3.53;0.47;;;15.90;99.90;;;;;;5021552;28;20209;-57
2024/01/24 11:33:23;;;;;;;0.90;0.22;;;15.80;99.90;;;;;;5023386;28;20207;-56
2024/01/24 11:35:51;;;;;;;0.52;0.22;;;15.60;99.90;;;;;;5024812;28;20260;-55
2024/01/24 11:38:35;;;;;;;0.90;0.30;;;15.40;99.90;;;;;;5023186;28;20230;-56
2024/01/24 11:41:04;;;;;;;3.17;1.90;;;15.20;99.90;;;;;;5021339;28;20712;-55
2024/01/24 11:43:32;;;;;;;1.30;0.90;;;15.10;99.90;;;;;;5023926;28;20738;-55
2024/01/24 11:46:01;;;;;;;3.80;2.37;;;14.80;99.90;;;;;;5023860;28;20214;-56
2024/01/24 11:48:30;;;;;;;4.40;1.13;;;14.80;99.90;;;;;;5021650;28;20398;-55
2024/01/24 11:50:57;;;;;;;3.87;1.83;;;14.80;99.90;;;;;;5020901;28;20253;-56
2024/01/24 11:53:24;;;;;;;2.93;1.20;;;15.10;99.90;;;;;;5022779;28;20294;-56
2024/01/24 11:55:52;;;;;;;2.90;1.43;;;15.20;99.90;;;;;;5024089;28;20265;-56
2024/01/24 11:58:19;;;;;;;2.27;1.43;;;15.30;99.90;;;;;;5022658;28;20727;-55
2024/01/24 12:00:46;;;;;;;1.63;0.90;;;15.40;99.90;;;;;;5021130;28;20230;-55
2024/01/24 12:03:16;;;;;;;3.10;1.90;;;15.60;99.90;;;;;;5021265;28;20297;-56
2024/01/24 12:05:43;;;;;;;1.60;0.60;;;16.00;99.90;;;;;;5024076;28;20210;-56
2024/01/24 12:08:09;;;;;;;1.10;0.68;;;16.10;99.90;;;;;;5023566;28;20209;-56
2024/01/24 12:10:38;;;;;;;2.53;0.43;;;16.30;99.90;;;;;;5020773;28;20705;-55
2024/01/24 12:13:05;;;;;;;1.85;0.60;;;16.50;99.90;;;;;;5020979;28;20238;-55
2024/01/24 12:15:33;;;;;;;0.38;0.20;;;16.50;99.90;;;;;;5023679;28;20556;-56
2024/01/24 12:18:05;;;;;;;0.90;0.20;;;16.40;99.90;;;;;;5024285;28;20218;-56
2024/01/24 12:20:33;;;;;;;1.02;0.45;;;16.30;99.90;;;;;;5021076;28;20313;-55
2024/01/24 12:23:00;;;;;;;0.60;0.50;;;16.30;99.90;;;;;;5020481;28;20215;-55
2024/01/24 12:25:27;;;;;;;1.38;0.45;;;16.30;99.90;;;;;;5022617;28;20261;-55
2024/01/24 12:27:54;;;;;;;1.50;0.87;;;16.40;99.90;;;;;;5023584;28;20735;-55
2024/01/24 12:30:21;;;;;;;0.75;0.40;;;16.30;99.90;;;;;;5022369;28;20209;-54
2024/01/24 12:32:48;;;;;;;2.20;0.40;;;16.10;99.90;;;;;;5012474;28;20211;-63
2024/01/24 12:35:17;;;;;;;1.60;0.60;;;15.90;99.90;;;;;;5020530;28;20214;-56
2024/01/24 12:37:46;;;;;;;1.23;0.60;;;15.80;99.90;;;;;;5023691;28;20278;-56
2024/01/24 12:40:13;;;;;;;2.83;0.77;;;15.70;99.90;;;;;;5022524;28;20229;-55
2024/01/24 12:42:40;;;;;;;1.87;0.60;;;15.60;99.90;;;;;;5020093;28;20253;-56
2024/01/24 12:45:11;;;;;;;1.93;0.80;;;15.60;99.90;;;;;;5020610;28;20210;-55
2024/01/24 12:47:38;;;;;;;1.90;1.00;;;15.60;99.90;;;;;;5019452;28;20685;-56
2024/01/24 12:50:05;;;;;;;3.43;1.60;;;15.60;99.90;;;;;;5019529;28;20230;-61